createdAt,value
2023-06-13T00:00:13.392Z,5.76
2023-06-13T00:01:14.039Z,3.76
2023-06-13T00:02:13.011Z,6.16
2023-06-13T00:03:13.529Z,5.52
2023-06-13T00:04:13.570Z,2.32
2023-06-13T00:05:13.658Z,2.88
2023-06-13T00:06:13.717Z,4.16
2023-06-13T00:07:14.725Z,2.68
2023-06-13T00:08:13.728Z,6.28
2023-06-13T00:09:16.248Z,4.36
2023-06-13T00:10:13.670Z,1.80
2023-06-13T00:11:12.880Z,4.32
2023-06-13T00:12:13.132Z,3.32
2023-06-13T00:13:13.215Z,3.96
2023-06-13T00:14:13.049Z,2.76
2023-06-13T00:15:12.872Z,1.60
2023-06-13T00:16:12.862Z,1.08
2023-06-13T00:17:13.908Z,2.04
2023-06-13T00:18:12.935Z,3.28
2023-06-13T00:19:13.030Z,0.00
2023-06-13T00:20:13.108Z,0.56
2023-06-13T00:21:13.347Z,0.00
2023-06-13T00:22:13.281Z,0.92
2023-06-13T00:23:13.472Z,1.24
2023-06-13T00:24:13.421Z,1.44
2023-06-13T00:25:13.452Z,0.84
2023-06-13T00:26:13.621Z,1.20
2023-06-13T00:27:13.463Z,2.56
2023-06-13T00:28:13.523Z,0.92
2023-06-13T00:29:18.462Z,0.08
2023-06-13T00:30:13.732Z,0.00
2023-06-13T00:31:13.310Z,0.00
2023-06-13T00:32:13.182Z,0.00
2023-06-13T00:33:13.143Z,0.00
2023-06-13T00:34:13.036Z,0.00
2023-06-13T00:35:12.892Z,0.00
2023-06-13T00:36:13.736Z,0.00
2023-06-13T00:37:13.652Z,0.00
2023-06-13T00:38:13.893Z,0.00
2023-06-13T00:39:13.170Z,0.00
2023-06-13T00:40:13.560Z,0.00
2023-06-13T00:41:13.808Z,0.00
2023-06-13T00:42:13.749Z,0.00
2023-06-13T00:43:13.798Z,0.00
2023-06-13T00:44:13.713Z,0.00
2023-06-13T00:45:13.506Z,0.00
2023-06-13T00:46:13.532Z,0.00
2023-06-13T00:47:13.521Z,0.00
2023-06-13T00:48:13.593Z,0.00
2023-06-13T00:49:13.584Z,0.00
2023-06-13T00:50:13.926Z,0.00
2023-06-13T00:51:13.352Z,0.00
2023-06-13T00:52:13.502Z,0.00
2023-06-13T00:53:13.391Z,0.00
2023-06-13T00:54:13.258Z,0.00
2023-06-13T00:55:13.352Z,0.12
2023-06-13T00:56:13.150Z,1.56
2023-06-13T00:57:13.053Z,1.60
2023-06-13T00:58:12.963Z,0.80
2023-06-13T00:59:13.123Z,1.44
2023-06-13T01:00:13.423Z,1.72
2023-06-13T01:01:13.604Z,1.60
2023-06-13T01:02:13.722Z,3.96
2023-06-13T01:03:13.848Z,4.32
2023-06-13T01:04:13.068Z,2.56
2023-06-13T01:05:13.200Z,3.40
2023-06-13T01:06:13.206Z,5.40
2023-06-13T01:07:13.138Z,6.04
2023-06-13T01:08:13.014Z,7.48
2023-06-13T01:09:12.737Z,5.84
2023-06-13T01:10:14.083Z,7.40
2023-06-13T01:11:13.272Z,8.24
2023-06-13T01:12:13.115Z,9.32
2023-06-13T01:13:13.009Z,8.52
2023-06-13T01:14:12.754Z,10.84
2023-06-13T01:15:13.683Z,8.36
2023-06-13T01:16:13.987Z,5.96
2023-06-13T01:17:13.058Z,6.36
2023-06-13T01:18:12.883Z,8.80
2023-06-13T01:19:12.895Z,6.92
2023-06-13T01:20:13.052Z,7.32
2023-06-13T01:21:13.455Z,8.40
2023-06-13T01:22:13.410Z,7.24
2023-06-13T01:23:13.380Z,6.56
2023-06-13T01:24:13.552Z,2.80
2023-06-13T01:25:15.074Z,5.08
2023-06-13T01:26:13.040Z,2.56
2023-06-13T01:27:13.454Z,4.60
2023-06-13T01:28:13.394Z,6.84
2023-06-13T01:29:13.513Z,4.00
2023-06-13T01:30:13.797Z,3.76
2023-06-13T01:31:12.886Z,2.00
2023-06-13T01:32:12.782Z,0.60
2023-06-13T01:33:13.846Z,3.96
2023-06-13T01:34:13.117Z,4.92
2023-06-13T01:35:13.336Z,4.44
2023-06-13T01:36:13.362Z,6.08
2023-06-13T01:37:13.347Z,5.32
2023-06-13T01:38:13.589Z,5.28
2023-06-13T01:39:13.688Z,3.32
2023-06-13T01:40:14.372Z,5.52
2023-06-13T01:41:13.553Z,4.04
2023-06-13T01:42:13.488Z,0.24
2023-06-13T01:43:13.344Z,5.72
2023-06-13T01:44:13.318Z,5.76
2023-06-13T01:45:13.280Z,3.92
2023-06-13T01:46:13.316Z,2.76
2023-06-13T01:47:13.498Z,2.88
2023-06-13T01:48:13.439Z,0.16
2023-06-13T01:49:13.999Z,0.00
2023-06-13T01:50:13.273Z,0.00
2023-06-13T01:51:13.488Z,0.00
2023-06-13T01:52:13.489Z,0.00
2023-06-13T01:53:13.530Z,0.00
2023-06-13T01:54:13.643Z,0.00
2023-06-13T01:55:13.641Z,0.00
2023-06-13T01:56:13.580Z,0.08
2023-06-13T01:57:13.419Z,1.68
2023-06-13T01:58:13.490Z,1.36
2023-06-13T01:59:13.337Z,1.88
2023-06-13T02:00:13.668Z,1.48
2023-06-13T02:01:12.901Z,0.68
2023-06-13T02:02:12.909Z,0.56
2023-06-13T02:03:12.841Z,0.08
2023-06-13T02:04:12.823Z,0.44
2023-06-13T02:05:13.694Z,0.92
2023-06-13T02:06:13.744Z,0.00
2023-06-13T02:07:13.646Z,0.00
2023-06-13T02:08:13.658Z,0.00
2023-06-13T02:09:13.588Z,0.00
2023-06-13T02:10:13.777Z,0.00
2023-06-13T02:11:12.884Z,0.00
2023-06-13T02:12:13.884Z,0.00
2023-06-13T02:13:13.815Z,0.00
2023-06-13T02:14:13.757Z,0.00
2023-06-13T02:15:13.502Z,0.00
2023-06-13T02:16:13.732Z,0.08
2023-06-13T02:17:13.822Z,0.00
2023-06-13T02:18:13.917Z,0.00
2023-06-13T02:19:12.911Z,0.00
2023-06-13T02:20:13.070Z,0.00
2023-06-13T02:21:13.285Z,0.08
2023-06-13T02:22:13.263Z,0.00
2023-06-13T02:23:13.277Z,0.00
2023-06-13T02:24:13.314Z,0.00
2023-06-13T02:25:13.420Z,0.00
2023-06-13T02:26:13.420Z,0.00
2023-06-13T02:27:13.438Z,0.08
2023-06-13T02:28:13.414Z,0.00
2023-06-13T02:29:13.269Z,0.00
2023-06-13T02:30:13.752Z,0.00
2023-06-13T02:31:13.185Z,0.00
2023-06-13T02:32:13.047Z,0.00
2023-06-13T02:33:13.206Z,0.00
2023-06-13T02:34:13.103Z,1.24
2023-06-13T02:35:13.037Z,1.32
2023-06-13T02:36:13.034Z,1.68
2023-06-13T02:37:12.826Z,0.36
2023-06-13T02:38:13.774Z,0.00
2023-06-13T02:39:13.797Z,1.04
2023-06-13T02:40:14.197Z,0.68
2023-06-13T02:41:13.452Z,0.88
2023-06-13T02:42:13.311Z,1.48
2023-06-13T02:43:13.306Z,3.08
2023-06-13T02:44:13.114Z,2.92
2023-06-13T02:45:13.106Z,4.24
2023-06-13T02:46:13.055Z,1.84
2023-06-13T02:47:13.129Z,1.60
2023-06-13T02:48:13.375Z,0.12
2023-06-13T02:49:13.228Z,0.00
2023-06-13T02:50:13.452Z,0.00
2023-06-13T02:51:13.844Z,2.72
2023-06-13T02:52:13.943Z,1.60
2023-06-13T02:53:13.139Z,2.44
2023-06-13T02:54:13.214Z,2.64
2023-06-13T02:55:13.142Z,0.36
2023-06-13T02:56:12.930Z,2.36
2023-06-13T02:57:12.844Z,1.72
2023-06-13T02:58:13.988Z,3.52
2023-06-13T02:59:13.112Z,1.64
2023-06-13T03:00:13.401Z,0.64
2023-06-13T03:01:13.608Z,0.40
2023-06-13T03:02:14.592Z,1.76
2023-06-13T03:03:13.855Z,1.48
2023-06-13T03:04:12.919Z,1.76
2023-06-13T03:05:12.800Z,2.52
2023-06-13T03:06:13.711Z,2.28
2023-06-13T03:07:13.765Z,1.88
2023-06-13T03:08:14.299Z,0.72
2023-06-13T03:09:13.284Z,1.04
2023-06-13T03:10:13.445Z,0.44
2023-06-13T03:11:13.644Z,0.28
2023-06-13T03:12:13.441Z,0.16
2023-06-13T03:13:13.410Z,0.60
2023-06-13T03:14:13.530Z,0.16
2023-06-13T03:15:13.563Z,0.00
2023-06-13T03:16:13.818Z,1.00
2023-06-13T03:17:13.887Z,1.24
2023-06-13T03:18:13.901Z,1.32
2023-06-13T03:19:12.818Z,1.40
2023-06-13T03:20:13.825Z,1.92
2023-06-13T03:21:13.825Z,0.48
2023-06-13T03:22:13.713Z,0.08
2023-06-13T03:23:13.590Z,0.68
2023-06-13T03:24:13.780Z,1.64
2023-06-13T03:25:13.993Z,0.24
2023-06-13T03:26:12.870Z,0.16
2023-06-13T03:27:13.879Z,2.72
2023-06-13T03:28:13.765Z,0.76
2023-06-13T03:29:13.766Z,0.44
2023-06-13T03:30:14.196Z,0.00
2023-06-13T03:31:13.540Z,0.76
2023-06-13T03:32:13.514Z,0.00
2023-06-13T03:33:13.435Z,1.12
2023-06-13T03:34:13.504Z,0.52
2023-06-13T03:35:13.320Z,1.28
2023-06-13T03:36:13.268Z,0.84
2023-06-13T03:37:13.133Z,2.00
2023-06-13T03:38:13.368Z,0.44
2023-06-13T03:39:13.250Z,1.96
2023-06-13T03:40:13.502Z,1.44
2023-06-13T03:41:13.642Z,0.60
2023-06-13T03:42:13.651Z,0.36
2023-06-13T03:43:13.656Z,1.28
2023-06-13T03:44:13.873Z,0.08
2023-06-13T03:45:13.697Z,0.04
2023-06-13T03:46:15.975Z,0.72
2023-06-13T03:47:13.384Z,0.44
2023-06-13T03:48:13.483Z,0.00
2023-06-13T03:49:14.185Z,1.08
2023-06-13T03:50:13.621Z,2.32
2023-06-13T03:51:13.797Z,0.24
2023-06-13T03:52:13.829Z,0.28
2023-06-13T03:53:14.097Z,3.72
2023-06-13T03:54:13.426Z,3.56
2023-06-13T03:55:13.321Z,2.68
2023-06-13T03:56:13.120Z,1.12
2023-06-13T03:57:12.866Z,0.92
2023-06-13T03:58:14.201Z,0.00
2023-06-13T03:59:13.303Z,0.00
2023-06-13T04:00:13.689Z,0.00
2023-06-13T04:01:12.864Z,0.00
2023-06-13T04:02:14.781Z,0.00
2023-06-13T04:03:13.945Z,0.08
2023-06-13T04:04:12.978Z,4.12
2023-06-13T04:05:13.110Z,4.60
2023-06-13T04:06:13.053Z,1.36
2023-06-13T04:07:13.046Z,0.88
2023-06-13T04:08:12.906Z,0.48
2023-06-13T04:09:12.786Z,3.12
2023-06-13T04:10:14.118Z,0.48
2023-06-13T04:11:13.266Z,2.00
2023-06-13T04:12:13.153Z,3.08
2023-06-13T04:13:13.118Z,1.92
2023-06-13T04:14:13.056Z,1.84
2023-06-13T04:15:13.107Z,0.40
2023-06-13T04:16:13.289Z,1.61
2023-06-13T04:17:19.438Z,0.44
2023-06-13T04:18:13.353Z,0.80
2023-06-13T04:19:13.249Z,3.28
2023-06-13T04:20:13.706Z,0.24
2023-06-13T04:21:13.008Z,1.04
2023-06-13T04:22:13.242Z,5.20
2023-06-13T04:23:13.158Z,0.88
2023-06-13T04:24:13.014Z,2.32
2023-06-13T04:25:12.949Z,1.44
2023-06-13T04:26:12.789Z,0.00
2023-06-13T04:27:14.516Z,0.52
2023-06-13T04:28:13.453Z,0.08
2023-06-13T04:29:13.352Z,1.96
2023-06-13T04:30:13.626Z,0.84
2023-06-13T04:31:12.817Z,3.72
2023-06-13T04:32:14.091Z,5.08
2023-06-13T04:33:13.265Z,6.44
2023-06-13T04:34:13.548Z,2.96
2023-06-13T04:35:13.597Z,5.20
2023-06-13T04:36:13.561Z,6.96
2023-06-13T04:37:13.311Z,3.52
2023-06-13T04:38:13.335Z,1.80
2023-06-13T04:39:13.464Z,2.76
2023-06-13T04:40:13.844Z,2.44
2023-06-13T04:41:12.933Z,3.48
2023-06-13T04:42:12.741Z,2.48
2023-06-13T04:43:13.759Z,1.04
2023-06-13T04:44:13.669Z,3.84
2023-06-13T04:45:13.957Z,1.92
2023-06-13T04:46:13.150Z,3.36
2023-06-13T04:47:13.147Z,4.20
2023-06-13T04:48:13.012Z,3.76
2023-06-13T04:49:13.300Z,0.80
2023-06-13T04:50:14.000Z,0.60
2023-06-13T04:51:15.277Z,0.20
2023-06-13T04:52:13.311Z,0.12
2023-06-13T04:53:13.238Z,0.00
2023-06-13T04:54:13.242Z,1.48
2023-06-13T04:55:13.313Z,0.44
2023-06-13T04:56:13.460Z,0.52
2023-06-13T04:57:13.521Z,0.00
2023-06-13T04:58:13.609Z,0.68
2023-06-13T04:59:13.920Z,0.08
2023-06-13T05:00:13.681Z,1.36
2023-06-13T05:01:13.718Z,0.00
2023-06-13T05:02:13.691Z,1.12
2023-06-13T05:03:13.573Z,0.00
2023-06-13T05:04:13.540Z,0.00
2023-06-13T05:05:13.444Z,0.08
2023-06-13T05:06:13.509Z,0.92
2023-06-13T05:07:13.694Z,1.20
2023-06-13T05:08:13.750Z,0.64
2023-06-13T05:09:13.965Z,0.00
2023-06-13T05:10:15.686Z,0.64
2023-06-13T05:11:13.419Z,0.16
2023-06-13T05:12:13.291Z,0.00
2023-06-13T05:13:13.255Z,0.00
2023-06-13T05:14:13.458Z,0.00
2023-06-13T05:15:13.341Z,0.24
2023-06-13T05:16:13.257Z,0.00
2023-06-13T05:17:13.491Z,1.64
2023-06-13T05:18:13.717Z,0.24
2023-06-13T05:19:13.665Z,0.00
2023-06-13T05:20:13.928Z,0.00
2023-06-13T05:21:13.016Z,0.00
2023-06-13T05:22:12.941Z,0.00
2023-06-13T05:23:12.753Z,0.12
2023-06-13T05:24:13.697Z,0.00
2023-06-13T05:25:13.668Z,0.56
2023-06-13T05:26:13.810Z,2.20
2023-06-13T05:27:13.748Z,0.52
2023-06-13T05:28:13.611Z,0.00
2023-06-13T05:29:13.630Z,0.00
2023-06-13T05:30:13.883Z,0.00
2023-06-13T05:31:14.242Z,0.00
2023-06-13T05:32:13.486Z,3.52
2023-06-13T05:33:13.401Z,1.20
2023-06-13T05:34:13.316Z,0.56
2023-06-13T05:35:13.565Z,6.24
2023-06-13T05:36:13.478Z,3.04
2023-06-13T05:37:13.598Z,0.40
2023-06-13T05:38:13.449Z,0.92
2023-06-13T05:39:14.136Z,0.52
2023-06-13T05:40:13.515Z,0.76
2023-06-13T05:41:13.590Z,0.00
2023-06-13T05:42:13.599Z,0.00
2023-06-13T05:43:13.496Z,0.20
2023-06-13T05:44:13.466Z,0.00
2023-06-13T05:45:13.552Z,0.00
2023-06-13T05:46:13.493Z,1.00
2023-06-13T05:47:13.592Z,1.88
2023-06-13T05:48:14.271Z,0.08
2023-06-13T05:49:13.495Z,0.00
2023-06-13T05:50:14.137Z,0.84
2023-06-13T05:51:13.416Z,1.96
2023-06-13T05:52:13.462Z,0.76
2023-06-13T05:53:13.414Z,1.76
2023-06-13T05:54:13.350Z,0.08
2023-06-13T05:55:14.370Z,2.64
2023-06-13T05:56:13.280Z,0.80
2023-06-13T05:57:13.295Z,0.24
2023-06-13T05:58:13.475Z,0.08
2023-06-13T05:59:13.520Z,0.08
2023-06-13T06:00:13.825Z,3.36
2023-06-13T06:01:13.178Z,1.56
2023-06-13T06:02:50.437Z,1.52
2023-06-13T06:03:18.520Z,2.04
2023-06-13T06:04:14.474Z,0.76
2023-06-13T06:05:13.476Z,5.24
2023-06-13T06:06:13.397Z,3.24
2023-06-13T06:07:13.334Z,2.16
2023-06-13T06:08:13.256Z,7.00
2023-06-13T06:09:13.367Z,1.36
2023-06-13T06:10:14.402Z,0.72
2023-06-13T06:11:13.552Z,1.40
2023-06-13T06:12:13.613Z,4.00
2023-06-13T06:13:13.672Z,1.92
2023-06-13T06:14:13.638Z,0.56
2023-06-13T06:15:13.601Z,1.56
2023-06-13T06:16:13.573Z,1.00
2023-06-13T06:17:13.535Z,1.24
2023-06-13T06:18:13.602Z,3.04
2023-06-13T06:19:13.665Z,4.24
2023-06-13T06:20:14.067Z,4.52
2023-06-13T06:21:13.192Z,5.80
2023-06-13T06:22:13.299Z,3.40
2023-06-13T06:23:13.200Z,4.80
2023-06-13T06:24:13.102Z,3.88
2023-06-13T06:25:14.789Z,1.96
2023-06-13T06:26:13.073Z,2.88
2023-06-13T06:27:13.153Z,3.44
2023-06-13T06:28:12.971Z,8.72
2023-06-13T06:29:12.943Z,3.04
2023-06-13T06:30:13.333Z,6.60
2023-06-13T06:31:13.679Z,10.28
2023-06-13T06:32:13.699Z,9.88
2023-06-13T06:33:13.577Z,26.76
2023-06-13T06:34:13.838Z,11.64
2023-06-13T06:35:14.125Z,5.92
2023-06-13T06:36:13.132Z,13.52
2023-06-13T06:37:14.178Z,2.48
2023-06-13T06:38:13.318Z,0.76
2023-06-13T06:39:13.178Z,4.56
2023-06-13T06:40:13.748Z,16.64
2023-06-13T06:41:13.113Z,18.08
2023-06-13T06:42:13.587Z,14.84
2023-06-13T06:43:13.483Z,2.24
2023-06-13T06:44:13.466Z,5.64
2023-06-13T06:45:13.462Z,12.16
2023-06-13T06:46:13.407Z,20.32
2023-06-13T06:47:13.334Z,10.72
2023-06-13T06:48:13.543Z,7.48
2023-06-13T06:49:13.425Z,17.72
2023-06-13T06:50:13.853Z,14.00
2023-06-13T06:51:13.019Z,6.52
2023-06-13T06:52:12.935Z,7.28
2023-06-13T06:53:13.052Z,14.88
2023-06-13T06:54:12.893Z,10.00
2023-06-13T06:55:12.924Z,2.56
2023-06-13T06:56:12.886Z,15.36
2023-06-13T06:57:13.032Z,25.68
2023-06-13T06:58:12.969Z,25.52
2023-06-13T06:59:13.176Z,21.12
2023-06-13T07:00:13.353Z,0.92
2023-06-13T07:01:13.543Z,1.84
2023-06-13T07:02:13.621Z,1.00
2023-06-13T07:03:14.182Z,4.80
2023-06-13T07:04:13.575Z,4.40
2023-06-13T07:05:13.516Z,5.16
2023-06-13T07:06:13.380Z,10.52
2023-06-13T07:07:13.274Z,9.16
2023-06-13T07:08:13.380Z,18.08
2023-06-13T07:09:13.671Z,17.52
2023-06-13T07:10:14.320Z,8.08
2023-06-13T07:11:13.592Z,8.40
2023-06-13T07:12:13.863Z,5.52
2023-06-13T07:13:13.976Z,4.72
2023-06-13T07:14:13.105Z,7.16
2023-06-13T07:15:13.210Z,16.60
2023-06-13T07:16:13.244Z,15.92
2023-06-13T07:17:13.206Z,7.80
2023-06-13T07:18:13.344Z,4.68
2023-06-13T07:19:13.371Z,10.32
2023-06-13T07:20:13.925Z,14.40
2023-06-13T07:21:13.360Z,21.68
2023-06-13T07:22:13.303Z,18.68
2023-06-13T07:23:13.311Z,4.76
2023-06-13T07:24:13.316Z,2.88
2023-06-13T07:25:18.423Z,6.76
2023-06-13T07:26:13.433Z,13.76
2023-06-13T07:27:13.182Z,4.64
2023-06-13T07:28:13.309Z,8.88
2023-06-13T07:29:13.579Z,3.56
2023-06-13T07:30:13.868Z,2.32
2023-06-13T07:31:18.159Z,5.68
2023-06-13T07:32:13.433Z,6.48
2023-06-13T07:33:14.028Z,8.20
2023-06-13T07:34:34.085Z,3.80
2023-06-13T07:35:13.122Z,0.08
2023-06-13T07:36:12.921Z,0.72
2023-06-13T07:37:12.782Z,2.80
2023-06-13T07:38:13.898Z,1.00
2023-06-13T07:39:12.936Z,5.68
2023-06-13T07:40:13.576Z,0.16
2023-06-13T07:41:13.802Z,3.88
2023-06-13T07:42:13.987Z,9.36
2023-06-13T07:43:12.944Z,3.84
2023-06-13T07:45:12.901Z,0.72
2023-06-13T07:46:12.985Z,1.08
2023-06-13T07:47:13.086Z,5.76
2023-06-13T07:48:13.230Z,6.08
2023-06-13T07:49:13.235Z,1.64
2023-06-13T07:50:13.565Z,4.04
2023-06-13T07:51:13.984Z,0.00
2023-06-13T07:52:12.888Z,2.36
2023-06-13T07:53:13.789Z,5.24
2023-06-13T07:54:13.829Z,3.12
2023-06-13T07:55:13.853Z,1.96
2023-06-13T07:56:18.833Z,0.96
2023-06-13T07:57:33.707Z,2.54
2023-06-13T07:58:13.074Z,1.92
2023-06-13T07:59:12.934Z,3.80
2023-06-13T08:00:13.214Z,3.92
2023-06-13T08:01:13.562Z,2.72
2023-06-13T08:02:13.868Z,5.24
2023-06-13T08:03:13.822Z,0.88
2023-06-13T08:04:14.276Z,3.68
2023-06-13T08:05:13.321Z,7.64
2023-06-13T08:06:13.542Z,4.08
2023-06-13T08:07:13.509Z,2.68
2023-06-13T08:08:13.514Z,2.40
2023-06-13T08:09:14.011Z,0.60
2023-06-13T08:10:13.430Z,7.16
2023-06-13T08:11:14.422Z,10.96
2023-06-13T08:12:13.675Z,8.04
2023-06-13T08:13:13.642Z,0.88
2023-06-13T08:14:13.587Z,3.04
2023-06-13T08:15:13.570Z,6.48
2023-06-13T08:16:13.762Z,1.48
2023-06-13T08:17:14.004Z,0.76
2023-06-13T08:18:31.414Z,0.00
2023-06-13T08:19:13.688Z,4.44
2023-06-13T08:20:14.120Z,4.16
2023-06-13T08:21:13.381Z,2.84
2023-06-13T08:22:13.230Z,1.68
2023-06-13T08:23:13.338Z,3.44
2023-06-13T08:24:13.375Z,14.08
2023-06-13T08:25:13.673Z,5.52
2023-06-13T08:26:13.847Z,3.76
2023-06-13T08:27:14.073Z,12.20
2023-06-13T08:28:13.275Z,8.64
2023-06-13T08:29:15.024Z,16.24
2023-06-13T08:30:14.054Z,24.76
2023-06-13T08:31:39.484Z,17.04
2023-06-13T08:32:13.329Z,2.72
2023-06-13T08:33:13.639Z,0.12
2023-06-13T08:34:15.132Z,1.20
2023-06-13T08:35:14.424Z,2.84
2023-06-13T08:36:30.696Z,6.72
2023-06-13T08:37:13.115Z,11.84
2023-06-13T08:38:12.977Z,6.24
2023-06-13T08:39:13.210Z,0.16
2023-06-13T08:40:13.398Z,0.16
2023-06-13T08:41:13.345Z,3.28
2023-06-13T08:42:13.409Z,4.36
2023-06-13T08:43:13.275Z,5.80
2023-06-13T08:44:13.263Z,3.24
2023-06-13T08:45:13.754Z,3.16
2023-06-13T08:46:12.946Z,2.56
2023-06-13T08:47:31.555Z,3.00
2023-06-13T08:48:13.005Z,3.12
2023-06-13T08:49:13.438Z,2.40
2023-06-13T08:50:13.687Z,8.04
2023-06-13T08:51:17.649Z,0.24
2023-06-13T08:52:23.647Z,1.04
2023-06-13T08:53:18.936Z,4.00
2023-06-13T08:54:12.683Z,3.96
2023-06-13T08:55:34.479Z,12.18
2023-06-13T08:56:13.768Z,18.12
2023-06-13T08:57:13.809Z,6.00
2023-06-13T08:58:18.908Z,5.44
2023-06-13T08:59:12.929Z,9.80
2023-06-13T09:00:47.811Z,0.72
2023-06-13T09:01:00.272Z,2.52
2023-06-13T09:01:12.172Z,3.84
2023-06-13T09:02:13.140Z,12.04
2023-06-13T09:03:13.612Z,5.32
2023-06-13T09:04:14.029Z,10.08
2023-06-13T09:05:13.253Z,8.21
2023-06-13T09:06:13.553Z,3.08
2023-06-13T09:07:28.438Z,2.88
2023-06-13T09:08:30.007Z,5.09
2023-06-13T09:09:13.348Z,1.08
2023-06-13T09:10:13.728Z,0.24
2023-06-13T09:11:12.929Z,6.72
2023-06-13T09:12:13.130Z,3.60
2023-06-13T09:13:13.310Z,2.24
2023-06-13T09:14:13.483Z,5.09
2023-06-13T09:15:13.792Z,7.40
2023-06-13T09:16:13.085Z,10.08
2023-06-13T09:18:13.157Z,9.84
2023-06-13T09:19:14.562Z,6.29
2023-06-13T09:20:13.892Z,1.28
2023-06-13T09:21:13.257Z,0.24
2023-06-13T09:22:13.275Z,0.60
2023-06-13T09:23:13.287Z,2.16
2023-06-13T09:24:13.418Z,5.56
2023-06-13T09:25:13.548Z,4.84
2023-06-13T09:26:13.472Z,7.68
2023-06-13T09:27:13.503Z,8.68
2023-06-13T09:28:21.237Z,5.04
2023-06-13T09:29:26.564Z,13.49
2023-06-13T09:30:19.757Z,9.36
2023-06-13T09:31:13.270Z,3.12
2023-06-13T09:32:13.277Z,0.68
2023-06-13T09:33:13.359Z,2.88
2023-06-13T09:34:13.325Z,3.76
2023-06-13T09:35:17.939Z,2.52
2023-06-13T09:36:17.838Z,5.20
2023-06-13T09:37:13.752Z,3.48
2023-06-13T09:38:13.819Z,4.64
2023-06-13T09:39:13.857Z,7.12
2023-06-13T09:40:14.897Z,8.64
2023-06-13T09:41:13.017Z,12.48
2023-06-13T09:42:12.929Z,10.48
2023-06-13T09:43:18.048Z,2.12
2023-06-13T09:44:58.700Z,3.60
2023-06-13T09:45:13.033Z,3.00
2023-06-13T09:46:13.220Z,2.96
2023-06-13T09:47:13.282Z,4.52
2023-06-13T09:48:13.392Z,5.00
2023-06-13T09:49:13.280Z,6.64
2023-06-13T09:50:13.261Z,6.88
2023-06-13T09:51:13.558Z,4.04
2023-06-13T09:52:13.656Z,5.96
2023-06-13T09:53:14.902Z,10.04
2023-06-13T09:54:12.758Z,1.92
2023-06-13T09:55:13.772Z,15.32
2023-06-13T09:56:13.039Z,13.20
2023-06-13T09:57:12.974Z,20.80
2023-06-13T09:58:26.888Z,9.52
2023-06-13T09:59:13.206Z,19.32
2023-06-13T10:00:13.533Z,8.32
2023-06-13T10:01:13.919Z,13.64
2023-06-13T10:02:13.194Z,4.36
2023-06-13T10:03:21.156Z,8.28
2023-06-13T10:04:14.704Z,0.84
2023-06-13T10:05:13.739Z,6.20
2023-06-13T10:06:13.950Z,6.72
2023-06-13T10:07:12.772Z,6.52
2023-06-13T10:08:13.860Z,3.16
2023-06-13T10:09:12.768Z,3.63
2023-06-13T10:10:13.653Z,6.76
2023-06-13T10:11:13.499Z,4.44
2023-06-13T10:12:13.479Z,7.04
2023-06-13T10:13:13.452Z,15.60
2023-06-13T10:14:13.598Z,4.28
2023-06-13T10:15:14.236Z,3.88
2023-06-13T10:16:13.261Z,17.92
2023-06-13T10:17:13.309Z,7.92
2023-06-13T10:18:13.228Z,5.16
2023-06-13T10:19:13.334Z,5.80
2023-06-13T10:20:13.450Z,1.72
2023-06-13T10:21:13.358Z,0.96
2023-06-13T10:22:15.646Z,0.56
2023-06-13T10:23:14.312Z,0.84
2023-06-13T10:24:18.195Z,2.80
2023-06-13T10:25:13.190Z,1.36
2023-06-13T10:26:13.220Z,0.72
2023-06-13T10:27:13.123Z,1.00
2023-06-13T10:28:13.050Z,7.52
2023-06-13T10:29:13.221Z,8.12
2023-06-13T10:30:13.575Z,9.72
2023-06-13T10:31:13.292Z,11.52
2023-06-13T10:32:13.198Z,6.36
2023-06-13T10:35:23.434Z,3.28
2023-06-13T10:36:13.353Z,10.40
2023-06-13T10:37:19.836Z,10.52
2023-06-13T10:38:19.587Z,5.28
2023-06-13T10:39:17.250Z,3.00
2023-06-13T10:41:13.100Z,10.70
2023-06-13T10:42:13.244Z,5.80
2023-06-13T10:43:14.018Z,2.36
2023-06-13T10:44:13.112Z,7.96
2023-06-13T10:45:13.620Z,20.74
2023-06-13T10:46:13.668Z,6.62
2023-06-13T10:47:13.692Z,17.24
2023-06-13T10:48:14.302Z,12.40
2023-06-13T10:49:13.964Z,9.80
2023-06-13T10:50:14.215Z,11.40
2023-06-13T10:51:14.454Z,16.16
2023-06-13T10:52:14.591Z,10.00
2023-06-13T10:53:14.622Z,7.92
2023-06-13T10:55:15.654Z,6.72
2023-06-13T10:56:13.771Z,5.42
2023-06-13T10:57:13.841Z,14.04
2023-06-13T10:58:13.938Z,5.48
2023-06-13T10:59:18.518Z,3.44
2023-06-13T11:00:13.750Z,5.40
2023-06-13T11:01:12.954Z,15.72
2023-06-13T11:02:12.900Z,15.48
2023-06-13T11:03:14.081Z,19.68
2023-06-13T11:04:13.907Z,16.16
2023-06-13T11:05:13.309Z,11.52
2023-06-13T11:06:13.280Z,12.76
2023-06-13T11:07:13.947Z,5.80
2023-06-13T11:08:18.348Z,1.44
2023-06-13T11:09:13.553Z,4.94
2023-06-13T11:10:19.087Z,12.72
2023-06-13T11:11:12.956Z,10.64
2023-06-13T11:12:12.914Z,7.56
2023-06-13T11:13:18.244Z,5.92
2023-06-13T11:14:13.467Z,9.48
2023-06-13T11:15:13.478Z,2.36
2023-06-13T11:16:13.759Z,3.40
2023-06-13T11:17:13.649Z,2.44
2023-06-13T11:18:13.695Z,1.44
2023-06-13T11:19:13.859Z,0.36
2023-06-13T11:20:14.259Z,2.64
2023-06-13T11:21:13.219Z,2.28
2023-06-13T11:22:13.248Z,4.88
2023-06-13T11:23:13.240Z,6.36
2023-06-13T11:24:13.277Z,4.76
2023-06-13T11:25:13.891Z,10.00
2023-06-13T11:26:12.893Z,19.24
2023-06-13T11:27:12.814Z,14.36
2023-06-13T11:28:14.059Z,11.68
2023-06-13T11:29:13.266Z,11.16
2023-06-13T11:30:13.870Z,7.08
2023-06-13T11:31:14.029Z,2.68
2023-06-13T11:32:13.414Z,7.20
2023-06-13T11:33:13.245Z,3.17
2023-06-13T11:34:13.374Z,8.72
2023-06-13T11:35:13.611Z,9.50
2023-06-13T11:36:19.586Z,0.00
2023-06-13T11:37:13.871Z,9.60
2023-06-13T11:38:28.302Z,7.84
2023-06-13T11:39:18.462Z,18.08
2023-06-13T11:41:13.177Z,12.60
2023-06-13T11:42:18.125Z,5.84
2023-06-13T11:43:13.265Z,4.20
2023-06-13T11:44:13.164Z,10.04
2023-06-13T11:45:13.161Z,6.68
2023-06-13T11:47:18.625Z,17.76
2023-06-13T11:48:13.666Z,12.96
2023-06-13T11:49:13.850Z,20.08
2023-06-13T11:50:12.911Z,10.28
2023-06-13T11:51:12.963Z,20.84
2023-06-13T11:52:13.124Z,18.60
2023-06-13T11:53:13.025Z,5.68
2023-06-13T11:54:13.049Z,21.68
2023-06-13T11:55:13.120Z,11.92
2023-06-13T11:56:13.105Z,3.92
2023-06-13T11:57:12.958Z,7.40
2023-06-13T11:58:18.188Z,10.60
2023-06-13T11:59:13.144Z,17.52
2023-06-13T12:00:13.249Z,12.88
2023-06-13T12:01:13.834Z,15.56
2023-06-13T12:02:14.147Z,12.72
2023-06-13T12:03:13.262Z,2.36
2023-06-13T12:04:13.716Z,2.64
2023-06-13T12:05:14.028Z,6.52
2023-06-13T12:06:23.020Z,7.32
2023-06-13T12:08:19.049Z,3.48
2023-06-13T12:09:13.264Z,7.97
2023-06-13T12:10:13.209Z,6.80
2023-06-13T12:11:26.238Z,0.96
2023-06-13T12:12:18.850Z,5.04
2023-06-13T12:13:19.253Z,0.72
2023-06-13T12:14:13.291Z,0.77
2023-06-13T12:15:19.161Z,0.00
2023-06-13T12:17:14.233Z,14.93
2023-06-13T12:19:24.532Z,5.76
2023-06-13T12:20:14.064Z,12.10
2023-06-13T12:21:13.408Z,3.32
2023-06-13T12:22:13.395Z,10.28
2023-06-13T12:23:13.437Z,24.92
2023-06-13T12:24:13.204Z,14.84
2023-06-13T12:25:26.215Z,15.68
2023-06-13T12:26:13.516Z,14.88
2023-06-13T12:27:13.562Z,19.16
2023-06-13T12:28:13.656Z,10.36
2023-06-13T12:29:13.618Z,16.48
2023-06-13T12:30:13.500Z,13.80
2023-06-13T12:31:13.527Z,22.00
2023-06-13T12:32:13.981Z,22.08
2023-06-13T12:33:12.992Z,14.45
2023-06-13T12:34:13.293Z,14.28
2023-06-13T12:35:13.204Z,11.38
2023-06-13T12:36:13.126Z,13.04
2023-06-13T12:37:13.252Z,11.56
2023-06-13T12:38:13.326Z,8.24
2023-06-13T12:39:13.298Z,4.52
2023-06-13T12:40:13.247Z,3.64
2023-06-13T12:41:13.245Z,7.08
2023-06-13T12:42:13.424Z,20.44
2023-06-13T12:43:13.544Z,12.16
2023-06-13T12:44:13.546Z,8.80
2023-06-13T12:45:13.821Z,17.16
2023-06-13T12:46:13.007Z,8.12
2023-06-13T12:47:18.411Z,9.96
2023-06-13T12:48:13.917Z,2.80
2023-06-13T12:49:13.138Z,4.92
2023-06-13T12:50:13.087Z,13.32
2023-06-13T12:51:13.133Z,18.64
2023-06-13T12:52:13.146Z,21.52
2023-06-13T12:53:13.091Z,14.44
2023-06-13T12:54:13.227Z,11.48
2023-06-13T12:55:18.489Z,8.16
2023-06-13T12:56:13.432Z,4.42
2023-06-13T12:57:13.263Z,4.24
2023-06-13T12:58:13.368Z,5.20
2023-06-13T12:59:13.455Z,2.92
2023-06-13T13:00:13.664Z,8.24
2023-06-13T13:01:13.824Z,10.04
2023-06-13T13:02:14.184Z,5.60
2023-06-13T13:03:13.740Z,13.04
2023-06-13T13:04:13.042Z,10.24
2023-06-13T13:05:13.237Z,11.72
2023-06-13T13:06:13.467Z,8.72
2023-06-13T13:07:13.337Z,8.20
2023-06-13T13:08:13.602Z,20.80
2023-06-13T13:09:18.508Z,15.60
2023-06-13T13:10:13.438Z,9.40
2023-06-13T13:12:13.725Z,3.88
2023-06-13T13:13:13.653Z,10.24
2023-06-13T13:14:13.570Z,2.48
2023-06-13T13:15:13.844Z,1.72
2023-06-13T13:16:14.023Z,3.60
2023-06-13T13:17:19.291Z,5.68
2023-06-13T13:18:13.261Z,5.36
2023-06-13T13:19:13.419Z,9.00
2023-06-13T13:20:13.570Z,12.08
2023-06-13T13:21:13.577Z,12.36
2023-06-13T13:22:13.624Z,13.40
2023-06-13T13:23:13.400Z,12.64
2023-06-13T13:24:30.216Z,21.12
2023-06-13T13:25:13.699Z,7.50